Time;durP1;ratioP1;P1;durP2;ratioP2;P2;SDS_P1;SDS_P2;PMS_P1;PMS_P2;Temp;Humidity;BMP_temperature;BMP_pressure;BME280_temperature;BME280_humidity;BME280_pressure;Samples;Min_cycle;Max_cycle;Signal;HPM_P1;HPM_P2
2022/01/23 00:00:33;;;;;;;;;24.50;22.50;;;;;22.17;43.63;102731.97;5063923;28;45364;-73
2022/01/23 00:03:01;;;;;;;;;23.25;20.75;;;;;22.18;42.99;102736.38;5062227;28;45421;-73
2022/01/23 00:05:33;;;;;;;;;23.00;21.50;;;;;22.18;43.25;102739.06;5050470;28;45441;-73
2022/01/23 00:07:58;;;;;;;;;20.00;19.50;;;;;22.17;43.56;102730.19;5057677;28;45442;-73
2022/01/23 00:10:24;;;;;;;;;21.75;20.25;;;;;22.18;43.38;102741.72;5044567;28;45802;-73
2022/01/23 00:12:55;;;;;;;;;23.75;20.50;;;;;22.17;42.97;102731.97;5044627;28;45369;-73
2022/01/23 00:18:06;;;;;;;;;26.25;22.75;;;;;22.18;43.34;102734.63;5047423;28;45431;-73
2022/01/23 00:20:31;;;;;;;;;24.50;21.75;;;;;22.17;42.95;102727.53;5078208;28;45362;-73
2022/01/23 00:22:58;;;;;;;;;27.25;22.75;;;;;22.17;43.18;102726.66;5080766;28;45786;-73
2022/01/23 00:30:54;;;;;;;;;24.25;23.50;;;;;22.15;43.33;102718.69;5083164;28;45512;-72
2022/01/23 00:33:20;;;;;;;;;27.50;24.75;;;;;22.15;43.34;102721.34;5083135;27;45431;-73
2022/01/23 00:35:46;;;;;;;;;26.50;22.50;;;;;22.16;42.99;102716.91;5081794;28;45249;-73
2022/01/23 00:38:12;;;;;;;;;23.00;21.75;;;;;22.16;42.95;102714.25;5064542;28;47172;-73
2022/01/23 00:40:38;;;;;;;;;23.25;20.25;;;;;22.15;43.46;102707.13;5064691;28;45829;-73
2022/01/23 00:43:13;;;;;;;;;27.75;23.75;;;;;22.15;43.28;102713.38;5045697;28;45285;-73
2022/01/23 00:45:44;;;;;;;;;28.75;24.50;;;;;22.15;43.29;102712.44;5067249;27;45527;-73
2022/01/23 00:48:11;;;;;;;;;24.00;22.00;;;;;22.13;43.05;102711.59;5065530;28;46499;-73
2022/01/23 00:50:39;;;;;;;;;22.25;19.50;;;;;22.15;43.08;102709.78;5081495;28;45307;-73
2022/01/23 00:53:08;;;;;;;;;28.00;23.50;;;;;22.14;42.90;102711.56;5064993;28;45331;-73
2022/01/23 00:55:33;;;;;;;;;21.75;21.50;;;;;22.14;42.97;102708.91;5061067;28;45500;-73
2022/01/23 00:57:58;;;;;;;;;26.75;22.25;;;;;22.14;43.35;102711.56;5077393;28;66492;-73
2022/01/23 01:00:24;;;;;;;;;23.25;22.00;;;;;22.13;43.19;102704.50;5064461;28;45394;-73
2022/01/23 01:02:49;;;;;;;;;28.75;25.00;;;;;22.15;43.21;102707.13;5051852;28;45655;-73
2022/01/23 01:05:15;;;;;;;;;22.50;22.25;;;;;22.14;43.28;102700.06;5064455;28;45505;-72
2022/01/23 01:07:40;;;;;;;;;29.50;26.50;;;;;22.13;43.14;102696.50;5081177;28;45639;-73
2022/01/23 01:10:11;;;;;;;;;22.50;20.75;;;;;22.13;43.04;102699.16;5063763;28;58418;-73
2022/01/23 01:12:47;;;;;;;;;29.50;24.75;;;;;22.15;43.17;102696.50;5064908;28;45452;-70
2022/01/23 01:33:54;;;;;;;;;24.00;21.25;;;;;22.12;43.06;102692.09;5079757;28;45339;-73
2022/01/23 01:39:04;;;;;;;;;27.25;24.50;;;;;22.12;42.81;102693.88;5054517;28;45362;-73
2022/01/23 01:41:30;;;;;;;;;22.75;21.50;;;;;22.12;43.14;102693.88;5063472;28;45224;-72
2022/01/23 01:43:57;;;;;;;;;28.00;26.50;;;;;22.11;43.01;102689.44;5043694;28;45414;-72
2022/01/23 01:46:22;;;;;;;;;24.75;22.25;;;;;22.10;42.78;102688.56;5080499;28;45318;-72
2022/01/23 01:48:47;;;;;;;;;25.50;24.75;;;;;22.10;43.22;102682.38;5063654;28;46083;-73
2022/01/23 01:51:16;;;;;;;;;23.50;22.25;;;;;22.10;43.22;102685.91;5044402;28;45344;-72
2022/01/23 01:53:48;;;;;;;;;30.25;24.25;;;;;22.10;43.11;102695.66;5044482;28;45357;-73
2022/01/23 01:56:13;;;;;;;;;28.75;24.25;;;;;22.11;42.95;102686.78;5075871;28;45446;-72
2022/01/23 02:09:22;;;;;;;;;29.50;27.75;;;;;22.08;42.63;102679.72;5066017;28;45308;-73
2022/01/23 02:15:14;;;;;;;;;27.50;26.50;;;;;22.09;42.73;102680.59;5066180;28;45287;-73
2022/01/23 02:55:21;;;;;;;;;26.00;25.75;;;;;22.05;42.52;102661.09;5062653;28;45359;-73
2022/01/23 03:00:15;;;;;;;;;29.00;25.50;;;;;22.05;43.16;102639.81;5062681;28;45318;-73
2022/01/23 03:02:45;;;;;;;;;23.25;23.25;;;;;22.06;42.53;102638.03;5045641;28;47080;-73
2022/01/23 03:05:23;;;;;;;;;31.25;27.50;;;;;22.06;42.72;102646.00;5049011;28;45465;-73
2022/01/23 03:10:43;;;;;;;;;29.75;26.75;;;;;22.06;43.03;102638.03;5065032;28;45370;-72
2022/01/23 03:27:01;;;;;;;;;23.00;23.00;;;;;22.07;43.08;102629.19;5064838;28;45309;-73
2022/01/23 03:29:39;;;;;;;;;23.50;22.50;;;;;22.06;42.86;102628.28;5045902;28;45460;-72
2022/01/23 03:32:20;;;;;;;;;24.00;22.75;;;;;22.07;42.77;102634.50;5077115;28;45344;-73
2022/01/23 03:34:45;;;;;;;;;25.00;23.00;;;;;22.06;42.54;102630.06;5058773;28;47682;-72
2022/01/23 03:37:10;;;;;;;;;27.75;24.00;;;;;22.06;42.90;102632.72;5062255;28;45373;-73
2022/01/23 03:39:36;;;;;;;;;24.25;22.00;;;;;22.06;43.14;102624.72;5044801;28;56197;-73
2022/01/23 03:42:01;;;;;;;;;20.50;20.50;;;;;22.06;43.15;102628.28;5077904;28;66043;-73
2022/01/23 03:44:27;;;;;;;;;27.50;23.50;;;;;22.06;42.95;102630.06;5041761;28;46946;-73
2022/01/23 03:47:15;;;;;;;;;27.50;24.25;;;;;22.06;42.51;102611.44;5058319;28;45384;-73
2022/01/23 03:49:40;;;;;;;;;25.50;23.25;;;;;22.06;42.52;102622.06;5077903;27;45193;-73
2022/01/23 03:52:08;;;;;;;;;25.00;23.50;;;;;22.06;42.80;102632.72;5061928;28;45280;-74
2022/01/23 03:54:33;;;;;;;;;22.00;21.75;;;;;22.04;42.78;102624.75;5061951;28;45371;-72
2022/01/23 03:57:00;;;;;;;;;22.25;22.00;;;;;22.06;42.83;102622.06;5042413;28;45281;-72
2022/01/23 03:59:26;;;;;;;;;24.75;22.75;;;;;22.06;42.40;102622.06;5061882;28;45426;-73
2022/01/23 04:01:51;;;;;;;;;26.00;23.00;;;;;22.06;42.51;102625.63;5057666;28;45331;-73
2022/01/23 04:04:40;;;;;;;;;23.50;21.00;;;;;22.05;42.52;102617.66;5061065;28;46410;-72
2022/01/23 04:07:16;;;;;;;;;22.75;22.25;;;;;22.05;42.55;102621.19;5081994;27;45317;-72
2022/01/23 04:09:42;;;;;;;;;25.25;23.75;;;;;22.05;43.13;102612.34;5065861;28;45277;-73
2022/01/23 04:12:11;;;;;;;;;24.50;23.00;;;;;22.06;42.65;102612.31;5047919;28;45484;-73
2022/01/23 04:14:44;;;;;;;;;22.75;19.25;;;;;22.06;42.73;102609.66;5061969;28;45334;-73
2022/01/23 04:33:46;;;;;;;;;21.50;20.75;;;;;22.05;42.58;102621.19;5067702;28;45513;-72
2022/01/23 05:01:00;;;;;;;;;21.50;19.00;;;;;22.02;42.55;102619.47;5061205;28;45419;-73
2022/01/23 05:05:59;;;;;;;;;21.00;18.25;;;;;22.02;42.69;102619.47;5081222;28;45406;-73
2022/01/23 05:08:27;;;;;;;;;21.25;19.50;;;;;22.04;42.41;102624.75;5049787;28;48116;-72
2022/01/23 05:10:53;;;;;;;;;19.75;18.00;;;;;22.04;42.58;102624.75;5047714;28;45335;-72
2022/01/23 05:13:19;;;;;;;;;20.50;18.00;;;;;22.04;42.60;102611.47;5064488;28;45409;-72
2022/01/23 05:15:44;;;;;;;;;19.50;18.50;;;;;22.05;42.42;102625.63;5064084;28;51407;-73
2022/01/23 05:18:09;;;;;;;;;17.25;16.00;;;;;22.04;42.42;102622.09;5056992;28;49791;-72
2022/01/23 05:20:36;;;;;;;;;18.00;17.25;;;;;22.05;42.55;102622.97;5047143;28;45474;-73
2022/01/23 05:23:04;;;;;;;;;16.50;16.00;;;;;22.04;42.40;102623.88;5081399;28;45260;-73
2022/01/23 05:25:33;;;;;;;;;17.00;16.00;;;;;22.04;42.66;102615.91;5081074;28;45252;-72
2022/01/23 05:27:58;;;;;;;;;19.00;18.25;;;;;22.04;42.08;102624.75;5044307;28;48014;-73
2022/01/23 05:30:24;;;;;;;;;21.00;18.25;;;;;22.04;42.41;102624.75;5061039;28;45356;-73
2022/01/23 05:32:49;;;;;;;;;21.00;18.50;;;;;22.04;42.46;102631.84;5043902;28;45441;-72
2022/01/23 05:35:17;;;;;;;;;23.75;19.50;;;;;22.04;42.54;102624.75;5061204;28;45453;-72
2022/01/23 05:37:43;;;;;;;;;14.75;14.75;;;;;22.04;42.63;102626.53;5060493;28;45334;-72
2022/01/23 05:40:11;;;;;;;;;17.00;16.75;;;;;22.03;42.33;102623.00;5061357;28;45350;-72
2022/01/23 05:42:37;;;;;;;;;16.75;14.75;;;;;22.05;42.46;102630.94;5080670;28;45428;-73
2022/01/23 05:45:02;;;;;;;;;17.75;16.50;;;;;22.05;42.62;102633.63;5046588;28;51275;-73
2022/01/23 05:47:28;;;;;;;;;19.75;17.00;;;;;22.04;42.38;102631.84;5063448;28;48181;-73
2022/01/23 05:49:54;;;;;;;;;13.75;13.75;;;;;22.05;42.24;102630.94;5080547;28;45555;-72
2022/01/23 05:52:19;;;;;;;;;17.50;17.50;;;;;22.04;42.25;102631.84;5080536;28;45312;-72
2022/01/23 05:54:44;;;;;;;;;17.25;16.00;;;;;22.04;42.55;102631.84;5043119;28;45489;-72
2022/01/23 05:57:10;;;;;;;;;17.50;15.00;;;;;22.03;42.75;102625.66;5050802;28;46863;-72
2022/01/23 05:59:35;;;;;;;;;16.75;16.75;;;;;22.01;42.85;102620.34;5078005;28;45437;-72
2022/01/23 06:02:01;;;;;;;;;15.75;14.00;;;;;22.02;42.18;102631.88;5081433;27;51685;-72
2022/01/23 06:04:26;;;;;;;;;18.50;16.50;;;;;22.03;42.75;102630.97;5079753;28;57818;-72
2022/01/23 06:06:53;;;;;;;;;18.75;17.00;;;;;22.03;42.25;102628.31;5080360;28;46234;-72
2022/01/23 06:09:20;;;;;;;;;19.00;17.25;;;;;22.02;42.39;102631.88;5046660;28;45270;-72
2022/01/23 06:11:46;;;;;;;;;18.50;15.75;;;;;22.01;42.39;102630.09;5026869;28;45364;-72
2022/01/23 06:14:11;;;;;;;;;15.75;15.25;;;;;22.04;42.56;102639.81;5026410;28;45473;-73
2022/01/23 06:16:37;;;;;;;;;16.00;14.25;;;;;22.04;42.37;102635.38;5043212;28;45364;-71
2022/01/23 06:19:03;;;;;;;;;18.00;17.00;;;;;22.06;43.09;102635.38;5041228;28;45969;-77
2022/01/23 06:21:28;;;;;;;;;16.00;14.25;;;;;22.08;43.41;102637.19;5040878;28;45505;-74
2022/01/23 06:24:02;;;;;;;;;12.50;12.25;;;;;22.08;43.58;102629.22;5060609;28;45444;-74
2022/01/23 06:26:47;;;;;;;;;17.50;14.75;;;;;22.12;42.69;102635.38;5064045;28;45516;-76
2022/01/23 06:29:15;;;;;;;;;13.75;12.00;;;;;22.12;43.44;102630.94;5059806;28;45497;-73
2022/01/23 06:31:40;;;;;;;;;21.50;17.00;;;;;22.13;43.88;102631.81;5060711;28;45337;-72
2022/01/23 06:34:06;;;;;;;;;19.00;15.25;;;;;22.15;43.46;102628.25;5042961;28;45407;-72
2022/01/23 06:36:33;;;;;;;;;13.25;11.00;;;;;22.17;43.19;102620.25;5055064;28;46021;-72
2022/01/23 06:38:59;;;;;;;;;14.50;14.50;;;;;22.17;43.56;102638.88;5042845;28;46071;-72
2022/01/23 06:41:24;;;;;;;;;17.50;14.75;;;;;22.16;43.60;102638.00;5060376;28;45346;-73
2022/01/23 06:43:49;;;;;;;;;15.75;15.50;;;;;22.17;43.77;102628.25;5062405;28;58695;-72
2022/01/23 06:46:15;;;;;;;;;17.50;16.75;;;;;22.18;43.86;102632.66;5042968;28;60632;-73
2022/01/23 06:48:40;;;;;;;;;18.00;15.25;;;;;22.17;43.50;102626.47;5062850;28;45287;-71
2022/01/23 06:51:06;;;;;;;;;13.75;13.25;;;;;22.18;43.40;102625.56;5045653;28;48685;-73
2022/01/23 06:53:31;;;;;;;;;14.75;13.00;;;;;22.20;43.63;102626.44;5062703;28;52257;-74
2022/01/23 06:55:57;;;;;;;;;13.00;10.50;;;;;22.19;43.39;102624.66;5079282;28;46379;-75
2022/01/23 06:58:22;;;;;;;;;13.50;11.75;;;;;22.21;43.90;102632.63;5061950;28;55142;-73
2022/01/23 07:00:47;;;;;;;;;14.00;12.75;;;;;22.20;43.50;102637.06;5079276;28;52915;-73
2022/01/23 07:03:13;;;;;;;;;15.25;14.50;;;;;22.22;43.52;102639.69;5059205;28;45410;-73
2022/01/23 07:05:38;;;;;;;;;12.75;12.75;;;;;22.22;43.76;102647.69;5058990;28;45381;-73
2022/01/23 07:08:04;;;;;;;;;16.00;12.00;;;;;22.23;44.07;102649.44;5079394;28;45472;-73
2022/01/23 07:10:30;;;;;;;;;15.75;14.25;;;;;22.22;43.59;102639.69;5062513;28;45315;-74
2022/01/23 07:12:55;;;;;;;;;14.75;12.00;;;;;22.22;43.49;102655.66;5041947;28;46071;-74
2022/01/23 07:15:21;;;;;;;;;14.50;12.00;;;;;22.22;43.54;102647.69;5051458;28;65917;-74
2022/01/23 07:17:46;;;;;;;;;15.25;12.25;;;;;22.20;43.61;102647.69;5045809;28;47816;-74
2022/01/23 07:20:11;;;;;;;;;14.25;12.50;;;;;22.20;43.21;102647.69;5078890;28;56599;-74
2022/01/23 07:22:37;;;;;;;;;13.25;12.25;;;;;22.19;43.76;102651.25;5078728;28;58872;-74
2022/01/23 07:25:04;;;;;;;;;16.00;11.50;;;;;22.18;43.45;102643.31;5062100;28;47104;-74
2022/01/23 07:27:34;;;;;;;;;12.25;11.00;;;;;22.17;43.83;102649.53;5078930;28;46099;-74
2022/01/23 07:30:00;;;;;;;;;13.25;10.00;;;;;22.16;43.55;102648.63;5058873;28;45322;-74
2022/01/23 07:32:25;;;;;;;;;13.00;11.50;;;;;22.17;43.78;102646.84;5060847;28;45320;-74
2022/01/23 07:34:51;;;;;;;;;14.25;13.25;;;;;22.16;43.97;102651.28;5041108;28;68685;-74
2022/01/23 07:37:17;;;;;;;;;14.00;11.75;;;;;22.16;43.60;102650.41;5065674;28;45228;-74
2022/01/23 07:39:42;;;;;;;;;11.00;11.00;;;;;22.15;43.85;102646.88;5058709;28;45794;-74
2022/01/23 07:42:08;;;;;;;;;11.50;10.00;;;;;22.15;43.94;102640.66;5057756;28;60731;-74
2022/01/23 07:44:33;;;;;;;;;11.25;11.25;;;;;22.15;43.67;102644.22;5034994;28;47036;-74
2022/01/23 07:46:59;;;;;;;;;11.50;11.50;;;;;22.14;43.85;102641.53;5041723;28;45264;-74
2022/01/23 07:49:24;;;;;;;;;11.75;11.75;;;;;22.14;43.29;102642.44;5051120;28;55370;-74
2022/01/23 07:51:50;;;;;;;;;13.00;11.50;;;;;22.14;43.36;102645.09;5061632;28;45581;-74
2022/01/23 07:54:15;;;;;;;;;16.25;14.00;;;;;22.14;43.32;102646.88;5078625;28;45329;-74
2022/01/23 07:56:42;;;;;;;;;13.00;10.25;;;;;22.14;43.39;102637.09;5041479;28;45454;-74
2022/01/23 07:59:09;;;;;;;;;12.00;11.50;;;;;22.14;43.49;102642.44;5034974;28;45561;-74
2022/01/23 08:01:38;;;;;;;;;14.00;13.75;;;;;22.14;43.81;102652.19;5061838;28;45450;-74
2022/01/23 08:04:04;;;;;;;;;12.75;11.75;;;;;22.14;43.22;102662.81;5078551;28;46225;-74
2022/01/23 08:06:32;;;;;;;;;15.00;11.50;;;;;22.13;43.48;102667.25;5078699;28;45321;-72
2022/01/23 08:08:58;;;;;;;;;15.00;12.00;;;;;22.15;43.41;102672.56;5078810;28;45439;-71
2022/01/23 08:11:23;;;;;;;;;11.25;10.75;;;;;22.14;43.28;102677.00;5057981;28;45388;-74
2022/01/23 08:13:49;;;;;;;;;12.00;12.00;;;;;22.13;43.36;102677.03;5057843;28;62421;-74
2022/01/23 08:16:14;;;;;;;;;11.75;11.25;;;;;22.13;43.54;102669.03;5058118;28;53882;-74
2022/01/23 08:18:41;;;;;;;;;13.25;10.25;;;;;22.14;43.43;102684.97;5061552;28;45335;-74
2022/01/23 08:21:07;;;;;;;;;9.00;8.50;;;;;22.14;43.70;102679.66;5061766;28;45558;-74
2022/01/23 08:23:33;;;;;;;;;12.00;10.25;;;;;22.14;43.19;102684.97;5061515;28;46179;-74
2022/01/23 08:25:58;;;;;;;;;10.00;9.00;;;;;22.15;43.08;102683.19;5079711;27;45434;-74
2022/01/23 08:28:24;;;;;;;;;15.75;11.00;;;;;22.14;42.99;102682.31;5077765;28;56734;-75
2022/01/23 08:30:49;;;;;;;;;10.25;9.25;;;;;22.14;43.40;102686.75;5078136;28;50679;-73
2022/01/23 08:33:15;;;;;;;;;13.00;11.00;;;;;22.14;43.47;102684.09;5058707;28;47599;-74
2022/01/23 08:35:43;;;;;;;;;11.00;9.50;;;;;22.14;43.48;102678.78;5054110;28;45271;-73
2022/01/23 08:38:09;;;;;;;;;11.25;9.75;;;;;22.14;43.59;102689.41;5037004;28;45352;-74
2022/01/23 08:40:47;;;;;;;;;10.00;9.75;;;;;22.14;43.66;102678.78;5041176;28;45292;-73
2022/01/23 08:43:14;;;;;;;;;14.00;11.75;;;;;22.16;43.43;102685.00;5059898;28;48552;-73
2022/01/23 08:45:39;;;;;;;;;9.75;9.00;;;;;22.16;43.53;102693.84;5081741;27;45554;-73
2022/01/23 08:48:05;;;;;;;;;14.25;11.00;;;;;22.17;43.54;102684.97;5047371;28;45355;-73
2022/01/23 08:50:30;;;;;;;;;11.75;10.50;;;;;22.17;43.32;102681.44;5064768;28;45296;-73
2022/01/23 08:52:56;;;;;;;;;13.00;9.50;;;;;22.17;43.49;102681.44;5081199;28;45388;-73
2022/01/23 08:55:21;;;;;;;;;11.50;10.00;;;;;22.17;43.13;102679.66;5081011;28;53147;-73
2022/01/23 08:57:47;;;;;;;;;11.00;9.25;;;;;22.17;43.78;102684.09;5064250;28;45844;-73
2022/01/23 09:00:14;;;;;;;;;9.50;7.50;;;;;22.17;43.49;102682.31;5081365;28;45417;-73
2022/01/23 09:02:40;;;;;;;;;13.25;10.75;;;;;22.17;43.86;102687.63;5081034;28;46211;-73
2022/01/23 09:05:05;;;;;;;;;10.25;9.75;;;;;22.18;43.88;102693.84;5064209;28;45386;-73
2022/01/23 09:07:31;;;;;;;;;8.00;7.00;;;;;22.17;43.52;102684.97;5062733;28;45406;-72
2022/01/23 09:10:03;;;;;;;;;10.00;10.00;;;;;22.17;43.82;102679.66;5060878;28;45653;-73
2022/01/23 09:15:03;;;;;;;;;11.25;9.25;;;;;22.19;43.63;102693.81;5081356;28;45364;-73
2022/01/23 09:17:28;;;;;;;;;11.00;8.50;;;;;22.20;44.09;102692.91;5064109;28;45436;-73
2022/01/23 09:19:53;;;;;;;;;12.25;8.25;;;;;22.20;44.18;102682.28;5047439;28;45446;-73
2022/01/23 09:22:19;;;;;;;;;9.50;8.00;;;;;22.21;43.71;102681.38;5097857;27;46905;-73
2022/01/23 09:24:44;;;;;;;;;0.00;0.00;;;;;22.21;44.19;102680.50;5081145;28;45456;-73
2022/01/23 09:27:18;;;;;;;;;10.50;8.75;;;;;22.21;43.36;102692.03;5082272;27;45412;-73
2022/01/23 09:29:44;;;;;;;;;10.50;9.50;;;;;22.22;43.81;102682.25;5065106;28;45367;-73
2022/01/23 09:32:12;;;;;;;;;9.75;8.75;;;;;22.23;43.78;102692.00;5060454;28;45438;-73
2022/01/23 09:34:37;;;;;;;;;12.00;9.00;;;;;22.23;44.15;102689.34;5052560;28;45337;-73
2022/01/23 09:37:05;;;;;;;;;12.25;9.75;;;;;22.22;43.81;102684.91;5060820;28;45208;-73
2022/01/23 09:39:31;;;;;;;;;13.25;11.00;;;;;22.22;43.65;102698.22;5060466;28;45589;-73
2022/01/23 09:42:16;;;;;;;;;12.50;9.25;;;;;22.21;43.90;102701.78;5060185;28;46489;-73
2022/01/23 09:44:50;;;;;;;;;10.00;9.00;;;;;22.21;43.93;102699.13;5074826;28;45420;-73
2022/01/23 09:47:16;;;;;;;;;11.25;10.50;;;;;22.21;43.75;102701.78;5060482;28;45472;-73
2022/01/23 09:49:42;;;;;;;;;12.50;11.00;;;;;22.20;43.53;102703.56;5076008;28;45468;-72
2022/01/23 09:52:09;;;;;;;;;11.75;10.50;;;;;22.20;43.54;102705.34;5043531;28;48321;-73
2022/01/23 09:54:34;;;;;;;;;12.25;10.75;;;;;22.19;43.37;102693.81;5079300;28;45457;-73
2022/01/23 09:57:01;;;;;;;;;9.00;8.75;;;;;22.17;43.03;102695.63;5043360;28;45617;-73
2022/01/23 09:59:26;;;;;;;;;10.50;10.50;;;;;22.18;42.87;102696.50;5058891;28;45471;-73
2022/01/23 10:01:55;;;;;;;;;13.00;12.00;;;;;22.16;42.77;102693.84;5062922;28;59876;-72
2022/01/23 10:04:21;;;;;;;;;11.00;11.00;;;;;22.16;42.91;102688.53;5057842;28;45346;-73
2022/01/23 10:06:47;;;;;;;;;12.00;10.50;;;;;22.16;43.31;102692.97;5080507;28;45349;-73
2022/01/23 10:09:12;;;;;;;;;12.50;8.75;;;;;22.16;43.36;102699.16;5045653;28;45520;-72
2022/01/23 10:11:41;;;;;;;;;9.25;9.25;;;;;22.19;43.89;102692.94;5046115;28;47568;-72
2022/01/23 10:14:07;;;;;;;;;10.50;9.00;;;;;22.17;43.47;102694.72;5063839;28;45260;-73
2022/01/23 10:16:33;;;;;;;;;9.00;7.25;;;;;22.16;43.75;102696.50;5053774;28;45232;-73
2022/01/23 10:18:59;;;;;;;;;9.00;9.00;;;;;22.17;43.74;102706.25;5076413;28;45427;-73
2022/01/23 10:21:25;;;;;;;;;12.00;11.00;;;;;22.17;43.75;102706.25;5059863;28;47578;-72
2022/01/23 10:23:51;;;;;;;;;12.50;9.00;;;;;22.18;43.47;102701.81;5046101;28;45777;-73
2022/01/23 10:26:47;;;;;;;;;8.75;8.00;;;;;22.20;43.45;102698.25;5063401;28;45275;-73
2022/01/23 10:29:37;;;;;;;;;9.50;8.50;;;;;22.19;43.54;102696.47;5080217;28;46127;-73
2022/01/23 10:32:19;;;;;;;;;10.00;8.50;;;;;22.19;43.73;102700.91;5063450;28;47522;-73
2022/01/23 10:35:00;;;;;;;;;13.75;9.75;;;;;22.18;43.33;102700.03;5080030;28;45531;-73
2022/01/23 10:37:33;;;;;;;;;9.00;7.00;;;;;22.18;43.71;102705.34;5080046;28;45255;-75
2022/01/23 10:40:06;;;;;;;;;12.00;9.00;;;;;22.17;43.62;102695.63;5062759;28;45232;-73
2022/01/23 10:48:11;;;;;;;;;10.50;9.25;;;;;22.17;43.23;102689.41;5066155;28;45504;-72
2022/01/23 10:50:36;;;;;;;;;8.25;8.25;;;;;22.17;43.78;102690.28;5083030;27;45473;-72
2022/01/23 10:53:02;;;;;;;;;8.25;8.25;;;;;22.18;43.59;102691.19;5060840;28;61638;-70
2022/01/23 10:55:34;;;;;;;;;9.75;8.75;;;;;22.20;43.62;102681.41;5066301;28;45240;-70
2022/01/23 10:58:02;;;;;;;;;8.75;8.75;;;;;22.22;43.81;102682.25;5042531;28;45339;-71
2022/01/23 11:00:29;;;;;;;;;10.25;10.25;;;;;22.23;44.16;102681.34;5054655;28;45504;-71
2022/01/23 11:02:56;;;;;;;;;12.50;9.25;;;;;22.24;44.36;102677.81;5079771;28;45460;-73
2022/01/23 11:05:33;;;;;;;;;9.00;8.00;;;;;22.25;44.51;102679.59;5079409;28;45380;-71
2022/01/23 11:07:59;;;;;;;;;13.75;10.00;;;;;22.26;44.39;102673.38;5043224;28;45546;-71
2022/01/23 11:10:24;;;;;;;;;10.75;9.25;;;;;22.27;44.34;102677.78;5072805;28;45408;-72
2022/01/23 11:18:08;;;;;;;;;9.50;7.75;;;;;22.28;43.92;102679.56;5079578;28;45286;-71
2022/01/23 11:20:46;;;;;;;;;10.00;8.25;;;;;22.29;43.92;102673.34;5080319;27;45382;-71
2022/01/23 11:23:27;;;;;;;;;12.00;11.00;;;;;22.28;44.10;102661.81;5079046;28;48365;-72
2022/01/23 11:25:52;;;;;;;;;11.75;10.00;;;;;22.28;44.01;102666.25;5080206;27;45480;-71
2022/01/23 11:28:27;;;;;;;;;9.25;9.25;;;;;22.28;43.98;102660.94;5080439;28;45362;-72
2022/01/23 11:30:53;;;;;;;;;11.25;10.50;;;;;22.30;43.40;102653.81;5063578;28;45627;-74
2022/01/23 11:33:18;;;;;;;;;12.25;10.75;;;;;22.31;44.09;102652.03;5059396;28;49197;-75
2022/01/23 11:35:44;;;;;;;;;16.00;13.00;;;;;22.30;44.25;102645.84;5058860;28;45485;-72
2022/01/23 11:38:13;;;;;;;;;15.25;11.00;;;;;22.31;43.12;102655.56;5073264;28;45377;-73
2022/01/23 11:53:57;;;;;;;;;13.50;12.00;;;;;22.28;43.49;102637.00;5078846;28;46283;-72
2022/01/23 11:56:26;;;;;;;;;11.00;10.00;;;;;22.28;43.58;102631.69;5061759;28;46355;-72
2022/01/23 11:59:22;;;;;;;;;9.50;8.25;;;;;22.28;43.32;102635.22;5075503;28;45258;-72
2022/01/23 12:02:08;;;;;;;;;9.25;9.25;;;;;22.26;43.62;102631.69;5054236;28;45228;-72
2022/01/23 12:04:34;;;;;;;;;9.00;9.00;;;;;22.26;43.16;102617.53;5077642;27;47713;-72
2022/01/23 12:07:12;;;;;;;;;13.00;10.50;;;;;22.26;42.84;102625.50;5069453;28;45872;-72
2022/01/23 12:09:38;;;;;;;;;9.00;9.00;;;;;22.22;42.86;102619.31;5075116;28;45469;-73
2022/01/23 12:12:53;;;;;;;;;11.50;11.50;;;;;22.22;42.49;102616.66;5037220;28;45385;-73
2022/01/23 12:17:18;;;;;;;;;11.00;7.50;;;;;22.20;42.79;102612.25;5061318;28;45287;-73
2022/01/23 12:19:54;;;;;;;;;11.00;8.75;;;;;22.18;42.79;102609.59;5054406;27;45299;-73
2022/01/23 12:22:27;;;;;;;;;11.00;9.00;;;;;22.19;42.15;102603.38;5049338;28;45236;-72
2022/01/23 12:24:55;;;;;;;;;9.75;8.75;;;;;22.19;42.53;102607.81;5081906;28;46272;-72
2022/01/23 12:27:27;;;;;;;;;9.25;9.00;;;;;22.19;42.10;102602.50;5064687;28;45656;-71
2022/01/23 12:30:12;;;;;;;;;10.25;9.50;;;;;22.19;42.03;102590.09;5045031;28;45244;-71
2022/01/23 12:32:38;;;;;;;;;14.00;10.00;;;;;22.20;41.82;102585.66;5034391;28;45454;-72
2022/01/23 12:35:05;;;;;;;;;11.75;11.75;;;;;22.18;41.53;102577.69;5042082;28;45304;-72
2022/01/23 12:37:52;;;;;;;;;12.00;9.00;;;;;22.20;41.79;102583.88;5081799;28;45192;-72
2022/01/23 12:40:27;;;;;;;;;10.75;10.75;;;;;22.20;42.03;102583.00;5083041;28;45329;-72
2022/01/23 12:43:12;;;;;;;;;11.25;9.50;;;;;22.21;41.91;102576.78;5081653;28;45260;-72
2022/01/23 12:45:55;;;;;;;;;12.25;9.00;;;;;22.20;42.22;102570.56;5081669;28;45612;-72
2022/01/23 12:48:27;;;;;;;;;10.25;9.50;;;;;22.20;42.00;102567.91;5082757;27;45468;-71
2022/01/23 12:51:04;;;;;;;;;7.25;7.25;;;;;22.20;41.57;102577.66;5083097;28;45181;-72
2022/01/23 12:53:37;;;;;;;;;13.75;10.00;;;;;22.19;41.69;102559.94;5065025;27;45253;-72
2022/01/23 12:56:10;;;;;;;;;12.50;9.25;;;;;22.19;41.73;102552.84;5064156;28;45713;-73
2022/01/23 12:58:36;;;;;;;;;7.75;7.25;;;;;22.20;42.02;102556.41;5081602;28;45286;-73
2022/01/23 13:01:04;;;;;;;;;12.25;7.75;;;;;22.19;42.29;102555.50;5079912;28;45778;-71
2022/01/23 13:03:29;;;;;;;;;12.25;8.50;;;;;22.18;42.15;102555.53;5036654;28;45457;-73
2022/01/23 13:05:55;;;;;;;;;9.75;9.50;;;;;22.18;41.87;102548.44;5049851;28;47127;-71
2022/01/23 13:08:27;;;;;;;;;10.50;9.25;;;;;22.17;41.84;102530.72;5040750;28;45772;-74
2022/01/23 13:13:37;;;;;;;;;10.75;8.50;;;;;22.17;42.00;102533.38;5077141;28;45365;-74
2022/01/23 13:30:19;;;;;;;;;9.25;8.00;;;;;22.17;42.42;102516.53;5061774;28;45452;-74
2022/01/23 13:32:50;;;;;;;;;7.00;7.00;;;;;22.18;42.45;102510.31;5061828;28;45444;-73
2022/01/23 13:35:17;;;;;;;;;9.75;8.25;;;;;22.18;42.17;102507.66;5057397;28;45417;-73
2022/01/23 13:37:47;;;;;;;;;8.75;8.75;;;;;22.16;42.23;102510.34;5040207;28;47202;-73
2022/01/23 13:40:20;;;;;;;;;10.75;8.00;;;;;22.20;42.63;102511.19;5034985;28;46669;-73
2022/01/23 13:59:54;;;;;;;;;10.75;9.00;;;;;22.21;42.59;102478.34;5075086;28;45931;-74
2022/01/23 14:02:37;;;;;;;;;11.00;8.75;;;;;22.18;42.21;102468.66;5075520;28;45418;-74
2022/01/23 14:05:06;;;;;;;;;10.50;9.00;;;;;22.20;42.15;102472.16;5032772;28;45384;-74
2022/01/23 14:07:32;;;;;;;;;12.50;11.25;;;;;22.20;42.50;102463.31;5066720;27;45557;-73
2022/01/23 14:09:59;;;;;;;;;11.50;10.50;;;;;22.19;42.33;102467.75;5049842;28;45562;-73
2022/01/23 14:12:25;;;;;;;;;13.00;10.50;;;;;22.20;42.55;102464.19;5052189;28;45593;-73
2022/01/23 14:15:04;;;;;;;;;11.50;10.75;;;;;22.20;42.01;102465.97;5032590;28;45450;-73
2022/01/23 14:17:35;;;;;;;;;13.00;11.75;;;;;22.18;42.53;102460.66;5033397;28;45772;-73
2022/01/23 14:20:16;;;;;;;;;13.00;11.25;;;;;22.18;41.95;102460.66;5030982;28;47194;-74
2022/01/23 14:22:43;;;;;;;;;12.50;11.50;;;;;22.18;42.41;102457.13;5057076;28;45492;-73
2022/01/23 14:25:19;;;;;;;;;12.50;11.00;;;;;22.18;42.21;102458.00;5057883;28;45506;-73
2022/01/23 14:27:59;;;;;;;;;13.50;12.00;;;;;22.19;42.09;102453.56;5040882;28;46649;-74
2022/01/23 14:30:27;;;;;;;;;18.25;14.50;;;;;22.17;42.16;102448.28;5034163;28;47058;-73
2022/01/23 14:32:54;;;;;;;;;17.75;13.50;;;;;22.17;41.98;102456.25;5076069;28;45501;-73
2022/01/23 14:35:27;;;;;;;;;12.75;12.00;;;;;22.17;42.66;102448.28;5035995;28;45421;-74
2022/01/23 14:37:52;;;;;;;;;12.75;11.75;;;;;22.17;42.10;102448.28;5056730;28;45546;-74
2022/01/23 14:40:26;;;;;;;;;12.75;12.75;;;;;22.17;42.54;102448.28;5040476;28;47054;-73
2022/01/23 14:43:02;;;;;;;;;10.50;10.25;;;;;22.19;42.58;102445.59;5058385;28;45394;-73
2022/01/23 14:45:28;;;;;;;;;10.75;9.75;;;;;22.18;42.16;102436.72;5057366;28;45396;-73